Time;durP1;ratioP1;P1;durP2;ratioP2;P2;SDS_P1;SDS_P2;PMS_P1;PMS_P2;Temp;Humidity;BMP_temperature;BMP_pressure;BME280_temperature;BME280_humidity;BME280_pressure;Samples;Min_cycle;Max_cycle;Signal;HPM_P1;HPM_P2
2022/07/24 00:00:34;;;;;;;3.40;3.10;;;;;;;15.36;100.00;101963.00;6159070;23;20025;-85
2022/07/24 00:03:02;;;;;;;3.92;3.50;;;;;;;15.32;100.00;101958.59;6110184;23;20431;-85
2022/07/24 00:05:31;;;;;;;3.28;2.80;;;;;;;15.30;100.00;101960.34;6159331;23;20035;-85
2022/07/24 00:08:00;;;;;;;4.03;2.80;;;;;;;15.30;100.00;101948.84;6151087;23;20023;-85
2022/07/24 00:10:28;;;;;;;3.35;2.90;;;;;;;15.29;100.00;101958.59;6183022;23;20021;-84
2022/07/24 00:12:57;;;;;;;6.13;3.47;;;;;;;15.29;100.00;101963.91;6137159;23;20024;-85
2022/07/24 00:15:25;;;;;;;2.83;2.63;;;;;;;15.27;100.00;101960.34;6133326;23;20021;-84
2022/07/24 00:17:54;;;;;;;3.15;2.90;;;;;;;15.25;100.00;101955.91;6196800;23;20350;-86
2022/07/24 00:20:23;;;;;;;3.30;3.10;;;;;;;15.23;100.00;101960.34;6131472;23;20505;-85
2022/07/24 00:22:51;;;;;;;3.45;3.25;;;;;;;15.21;100.00;101958.56;6160335;23;20023;-86
2022/07/24 00:25:20;;;;;;;4.47;3.25;;;;;;;15.18;100.00;101952.38;6142420;23;20013;-85
2022/07/24 00:27:48;;;;;;;3.17;2.88;;;;;;;15.17;100.00;101959.44;6116575;23;20017;-85
2022/07/24 00:30:17;;;;;;;3.58;3.25;;;;;;;15.15;100.00;101958.56;6084965;23;20294;-84
2022/07/24 00:32:45;;;;;;;4.10;3.63;;;;;;;15.13;100.00;101955.00;6113456;23;20021;-86
2022/07/24 00:35:13;;;;;;;4.22;3.08;;;;;;;15.14;100.00;101955.88;6191752;23;20029;-85
2022/07/24 00:37:42;;;;;;;3.10;2.80;;;;;;;15.12;100.00;101945.28;6125053;23;20020;-85
2022/07/24 00:40:10;;;;;;;4.80;3.30;;;;;;;15.11;100.00;101945.28;6133715;23;20451;-85
2022/07/24 00:42:39;;;;;;;2.85;2.65;;;;;;;15.07;100.00;101956.78;6173820;23;20443;-85
2022/07/24 00:45:09;;;;;;;3.25;2.92;;;;;;;15.06;100.00;101944.38;6168618;23;20027;-86
2022/07/24 00:47:52;;;;;;;3.90;3.60;;;;;;;15.02;100.00;101938.19;6166057;23;20443;-86
2022/07/24 00:50:26;;;;;;;13.27;4.03;;;;;;;15.01;100.00;101933.75;6115389;23;20297;-85
2022/07/24 00:52:57;;;;;;;2.90;2.55;;;;;;;15.01;100.00;101947.91;6151505;23;20457;-85
2022/07/24 00:55:26;;;;;;;;;;;;;;;14.97;100.00;101937.25;6158795;23;20253;-85
2022/07/24 00:58:00;;;;;;;5.78;3.72;;;;;;;14.95;100.00;101939.03;6138245;23;19939;-86
2022/07/24 01:00:29;;;;;;;7.60;3.95;;;;;;;14.92;100.00;101937.28;6170065;23;20021;-86
2022/07/24 01:02:57;;;;;;;6.00;3.47;;;;;;;14.93;100.00;101930.19;6152439;23;20308;-81
2022/07/24 01:05:28;;;;;;;3.63;3.20;;;;;;;14.91;100.00;101930.19;6115394;23;20021;-82
2022/07/24 01:08:00;;;;;;;3.90;3.60;;;;;;;14.90;100.00;101930.19;6116041;23;20017;-82
2022/07/24 01:10:29;;;;;;;5.47;4.05;;;;;;;14.89;100.00;101925.75;6160625;23;20024;-81
2022/07/24 01:12:58;;;;;;;4.10;3.80;;;;;;;14.87;100.00;101922.22;6133090;23;20024;-82
2022/07/24 01:15:26;;;;;;;5.35;4.13;;;;;;;14.86;100.00;101920.44;6079048;23;20167;-81
2022/07/24 01:17:55;;;;;;;4.85;3.83;;;;;;;14.83;100.00;101918.66;6165436;23;20024;-80
2022/07/24 01:20:23;;;;;;;4.43;4.03;;;;;;;14.81;100.00;101921.31;6086756;23;20248;-80
2022/07/24 01:22:51;;;;;;;4.68;4.22;;;;;;;14.84;100.00;101922.19;6141429;23;20028;-81
2022/07/24 01:25:20;;;;;;;8.10;4.80;;;;;;;14.81;100.00;101921.31;6061294;23;20116;-81
2022/07/24 01:27:50;;;;;;;5.28;4.65;;;;;;;14.82;100.00;101916.91;6192429;23;20021;-81
2022/07/24 01:30:18;;;;;;;5.85;3.97;;;;;;;14.79;100.00;101920.41;6079896;23;20247;-81
2022/07/24 01:32:47;;;;;;;4.85;4.22;;;;;;;14.78;100.00;101916.00;6117604;23;20023;-81
2022/07/24 01:35:15;;;;;;;4.90;4.20;;;;;;;14.78;100.00;101909.81;6109828;23;20025;-80
2022/07/24 01:37:52;;;;;;;8.38;4.88;;;;;;;14.76;100.00;101907.16;6143964;23;20028;-81
2022/07/24 01:40:21;;;;;;;5.07;4.50;;;;;;;14.75;100.00;101910.69;6144352;23;20147;-81
2022/07/24 01:42:50;;;;;;;7.38;5.57;;;;;;;14.73;100.00;101904.50;6191714;23;20463;-80
2022/07/24 01:45:19;;;;;;;6.88;4.80;;;;;;;14.72;100.00;101908.00;6160476;23;20032;-81
2022/07/24 01:47:48;;;;;;;5.80;5.05;;;;;;;14.72;100.00;101899.19;6164675;23;20017;-81
2022/07/24 01:50:16;;;;;;;4.93;4.53;;;;;;;14.69;100.00;101900.06;6125931;23;20497;-81
2022/07/24 01:52:44;;;;;;;6.38;5.05;;;;;;;14.70;100.00;101903.59;6137411;23;20028;-80
2022/07/24 01:55:13;;;;;;;5.50;4.50;;;;;;;14.69;100.00;101894.75;6143471;23;20025;-83
2022/07/24 01:57:41;;;;;;;7.40;4.75;;;;;;;14.68;100.00;101898.28;6130062;23;20013;-80
2022/07/24 02:00:12;;;;;;;6.13;4.82;;;;;;;14.69;100.00;101899.16;6133038;23;20024;-81
2022/07/24 02:02:43;;;;;;;5.70;5.20;;;;;;;14.68;100.00;101897.41;6179396;23;20454;-80
2022/07/24 02:05:13;;;;;;;5.30;4.78;;;;;;;14.67;100.00;101885.91;6176619;23;20461;-81
2022/07/24 02:07:43;;;;;;;5.57;5.05;;;;;;;14.68;100.00;101894.75;6149526;23;20025;-81
2022/07/24 02:10:13;;;;;;;4.97;4.57;;;;;;;14.69;100.00;101886.81;6172197;23;20021;-81
2022/07/24 02:12:41;;;;;;;6.53;5.30;;;;;;;14.70;100.00;101880.59;6164704;23;20026;-81
2022/07/24 02:15:10;;;;;;;6.68;5.00;;;;;;;14.70;100.00;101883.25;6152704;23;20021;-81
2022/07/24 02:17:38;;;;;;;5.30;4.80;;;;;;;14.72;100.00;101883.25;6188743;23;20017;-80
2022/07/24 02:20:08;;;;;;;5.28;4.78;;;;;;;14.71;100.00;101879.72;6187491;23;20032;-81
2022/07/24 02:22:37;;;;;;;5.72;5.10;;;;;;;14.71;100.00;101881.50;6152560;23;20447;-81
2022/07/24 02:25:07;;;;;;;5.57;4.85;;;;;;;14.72;100.00;101888.56;6138604;23;20031;-81
2022/07/24 02:27:36;;;;;;;10.00;5.18;;;;;;;14.72;100.00;101891.22;6066170;23;20028;-81
2022/07/24 02:30:10;;;;;;;5.07;4.65;;;;;;;14.72;100.00;101886.78;6187224;23;20021;-81
2022/07/24 02:32:38;;;;;;;5.85;5.22;;;;;;;14.72;100.00;101888.56;6165574;23;20032;-81
2022/07/24 02:35:09;;;;;;;5.55;4.90;;;;;;;14.71;100.00;101894.78;6163001;23;20335;-81
2022/07/24 02:37:42;;;;;;;;;;;;;;;14.71;100.00;101889.47;6162287;23;20024;-81
2022/07/24 02:40:11;;;;;;;6.63;5.53;;;;;;;14.68;100.00;101886.78;6151827;23;19916;-81
2022/07/24 02:42:39;;;;;;;6.93;5.13;;;;;;;14.68;100.00;101884.13;6147417;23;20028;-80
2022/07/24 02:45:10;;;;;;;5.32;4.93;;;;;;;14.66;100.00;101886.78;6162169;23;20017;-81
2022/07/24 02:47:48;;;;;;;5.40;4.90;;;;;;;14.64;100.00;101879.72;6164592;23;20025;-81
2022/07/24 02:50:23;;;;;;;6.38;5.03;;;;;;;14.62;100.00;101880.56;6184774;23;20313;-81
2022/07/24 02:52:51;;;;;;;9.05;5.70;;;;;;;14.63;100.00;101881.50;6160326;23;20028;-80
2022/07/24 02:55:20;;;;;;;5.30;4.90;;;;;;;14.63;100.00;101878.84;6175300;23;20084;-80
2022/07/24 02:57:48;;;;;;;5.32;4.85;;;;;;;14.64;100.00;101883.25;6147350;23;20032;-79
2022/07/24 03:00:17;;;;;;;7.97;5.03;;;;;;;14.62;100.00;101877.94;6135760;23;20234;-81
2022/07/24 03:02:45;;;;;;;7.05;4.90;;;;;;;14.64;100.00;101869.09;6186093;23;20709;-81
2022/07/24 03:05:14;;;;;;;6.10;5.05;;;;;;;14.62;100.00;101866.44;6125675;23;20477;-81
2022/07/24 03:07:43;;;;;;;5.25;4.80;;;;;;;14.63;100.00;101868.22;6189724;23;20016;-81
2022/07/24 03:10:12;;;;;;;10.15;5.03;;;;;;;14.63;100.00;101868.22;6182993;23;20358;-81
2022/07/24 03:12:42;;;;;;;7.40;5.32;;;;;;;14.63;100.00;101862.91;6175088;23;20350;-80
2022/07/24 03:15:12;;;;;;;7.05;4.57;;;;;;;14.63;100.00;101857.63;6161161;23;20017;-81
2022/07/24 03:17:49;;;;;;;5.18;4.78;;;;;;;14.63;100.00;101862.91;6139852;23;20032;-81
2022/07/24 03:20:18;;;;;;;9.40;5.22;;;;;;;14.64;100.00;101853.19;6186602;23;20032;-81
2022/07/24 03:22:47;;;;;;;8.50;6.05;;;;;;;14.64;100.00;101855.84;6163731;23;20044;-80
2022/07/24 03:25:15;;;;;;;9.27;6.55;;;;;;;14.64;100.00;101843.44;6181521;23;20142;-81
2022/07/24 03:27:45;;;;;;;8.15;5.63;;;;;;;14.64;100.00;101851.41;6164988;23;20013;-80
2022/07/24 03:30:13;;;;;;;5.75;5.07;;;;;;;14.64;100.00;101854.06;6144278;23;20454;-81
2022/07/24 03:32:42;;;;;;;7.60;5.38;;;;;;;14.65;100.00;101839.03;6189953;23;20004;-81
2022/07/24 03:35:10;;;;;;;7.57;5.50;;;;;;;14.64;100.00;101835.50;6136918;23;20013;-81
2022/07/24 03:37:40;;;;;;;5.65;4.97;;;;;;;14.64;100.00;101832.84;6164938;23;20021;-80
2022/07/24 03:40:09;;;;;;;6.00;5.40;;;;;;;14.65;100.00;101839.94;6184496;23;20032;-81
2022/07/24 03:42:38;;;;;;;7.70;5.25;;;;;;;14.65;100.00;101839.94;6190813;23;20036;-81
2022/07/24 03:45:07;;;;;;;7.25;5.55;;;;;;;14.68;100.00;101839.03;6121217;23;20017;-81
2022/07/24 03:47:35;;;;;;;6.15;5.65;;;;;;;14.71;100.00;101841.72;6163971;23;20024;-81
2022/07/24 03:50:11;;;;;;;5.93;5.28;;;;;;;14.72;100.00;101836.38;6163398;23;20324;-81
2022/07/24 03:52:42;;;;;;;6.50;5.63;;;;;;;14.75;100.00;101836.41;6158071;23;20024;-81
2022/07/24 03:55:11;;;;;;;6.00;5.40;;;;;;;14.77;100.00;101839.94;6182268;23;20020;-81
2022/07/24 03:57:40;;;;;;;5.13;4.72;;;;;;;14.80;100.00;101839.94;6165108;23;20446;-80
2022/07/24 04:00:09;;;;;;;6.43;5.35;;;;;;;14.82;100.00;101835.53;6150440;23;20025;-83
2022/07/24 04:02:41;;;;;;;7.57;5.38;;;;;;;14.85;100.00;101829.34;6156632;23;20021;-81
2022/07/24 04:05:10;;;;;;;10.23;5.43;;;;;;;14.91;100.00;101831.09;6186097;23;20016;-81
2022/07/24 04:07:39;;;;;;;6.22;5.57;;;;;;;14.91;100.00;101837.28;6182977;23;20032;-81
2022/07/24 04:10:09;;;;;;;6.37;4.97;;;;;;;14.95;100.00;101832.88;6185745;23;20021;-81
2022/07/24 04:12:37;;;;;;;5.57;5.03;;;;;;;14.98;100.00;101824.94;6180267;23;20021;-81
2022/07/24 04:15:06;;;;;;;6.80;5.28;;;;;;;15.02;100.00;101824.03;6152855;23;20323;-81
2022/07/24 04:17:38;;;;;;;6.32;5.28;;;;;;;15.06;100.00;101820.50;6134834;23;20290;-81
2022/07/24 04:20:08;;;;;;;5.72;5.22;;;;;;;15.11;100.00;101820.50;6164258;23;20028;-81
2022/07/24 04:22:36;;;;;;;5.88;5.30;;;;;;;15.17;100.00;101821.38;6166116;23;20026;-81
2022/07/24 04:25:08;;;;;;;6.85;6.25;;;;;;;15.23;100.00;101816.97;6104854;23;20021;-81
2022/07/24 04:27:37;;;;;;;6.15;5.55;;;;;;;15.28;100.00;101818.72;6150693;23;20021;-81
2022/07/24 04:30:07;;;;;;;6.72;6.13;;;;;;;15.31;100.00;101816.09;6163799;23;20021;-82
2022/07/24 04:32:36;;;;;;;7.43;5.63;;;;;;;15.34;100.00;101815.19;6149542;23;20032;-81
2022/07/24 04:35:08;;;;;;;6.05;5.38;;;;;;;15.35;100.00;101814.31;6188103;23;20071;-81
2022/07/24 04:37:36;;;;;;;5.55;5.05;;;;;;;15.40;100.00;101807.19;6189811;23;20016;-81
2022/07/24 04:40:07;;;;;;;7.15;5.15;;;;;;;15.42;100.00;101813.38;6154087;23;20021;-81
2022/07/24 04:42:35;;;;;;;5.88;5.38;;;;;;;15.47;100.00;101816.94;6137709;23;20485;-81
2022/07/24 04:45:04;;;;;;;8.85;5.00;;;;;;;15.60;100.00;101817.81;6152334;23;20358;-81
2022/07/24 04:47:34;;;;;;;5.85;5.35;;;;;;;15.64;100.00;101822.22;6123197;23;20028;-80
2022/07/24 04:50:05;;;;;;;6.43;5.75;;;;;;;15.67;100.00;101823.97;6177719;23;20346;-81
2022/07/24 04:52:33;;;;;;;8.82;5.45;;;;;;;15.68;100.00;101829.28;6189180;23;20325;-81
2022/07/24 04:55:02;;;;;;;6.65;6.00;;;;;;;15.70;100.00;101827.50;6155703;23;20473;-81
2022/07/24 04:57:31;;;;;;;6.10;5.50;;;;;;;15.70;100.00;101827.50;6184735;23;20028;-81
2022/07/24 04:59:59;;;;;;;8.52;5.50;;;;;;;15.69;100.00;101825.75;6190109;23;20021;-81
2022/07/24 05:02:28;;;;;;;6.32;5.35;;;;;;;15.72;100.00;101825.72;6136801;23;20029;-79
2022/07/24 05:04:56;;;;;;;9.43;5.45;;;;;;;15.77;100.00;101825.75;6106415;23;20029;-80
2022/07/24 05:07:25;;;;;;;7.18;5.30;;;;;;;15.98;100.00;101819.50;6161532;23;20039;-80
2022/07/24 05:09:53;;;;;;;10.20;5.05;;;;;;;16.13;100.00;101805.25;6190679;23;20016;-80
2022/07/24 05:12:22;;;;;;;6.80;5.10;;;;;;;16.22;100.00;101802.56;6183446;23;20025;-80
2022/07/24 05:14:50;;;;;;;5.50;5.00;;;;;;;16.27;100.00;101805.19;6129871;23;20025;-80
2022/07/24 05:17:19;;;;;;;5.70;5.20;;;;;;;16.40;100.00;101806.88;6117321;23;20516;-80
2022/07/24 05:19:48;;;;;;;5.50;5.10;;;;;;;16.65;100.00;101801.41;6142338;23;20350;-80
2022/07/24 05:22:17;;;;;;;6.32;5.72;;;;;;;16.77;100.00;101802.19;6161921;23;20028;-81
2022/07/24 05:24:45;;;;;;;9.88;5.53;;;;;;;16.83;100.00;101795.09;6190559;23;20477;-80
2022/07/24 05:27:13;;;;;;;8.23;5.15;;;;;;;16.87;100.00;101786.19;6161345;23;20013;-82
2022/07/24 05:29:42;;;;;;;8.70;6.57;;;;;;;16.95;100.00;101787.88;6113304;23;20044;-80
2022/07/24 05:32:10;;;;;;;9.85;5.75;;;;;;;17.03;100.00;101776.28;6148662;23;20017;-80
2022/07/24 05:34:39;;;;;;;6.53;5.32;;;;;;;17.08;100.00;101788.66;6142170;23;20473;-81
2022/07/24 05:37:09;;;;;;;5.82;5.10;;;;;;;17.12;100.00;101774.41;6155470;23;20024;-81
2022/07/24 05:39:37;;;;;;;5.68;4.90;;;;;;;17.19;100.00;101771.72;6192472;23;20013;-81
2022/07/24 05:42:05;;;;;;;8.38;4.90;;;;;;;17.24;100.00;101762.78;6187909;23;20017;-81
2022/07/24 05:44:34;;;;;;;7.35;4.72;;;;;;;17.49;100.00;101768.75;6165273;23;20467;-81
2022/07/24 05:47:03;;;;;;;5.13;4.72;;;;;;;17.88;100.00;101769.22;6150505;23;20021;-81
2022/07/24 05:49:36;;;;;;;6.72;5.13;;;;;;;18.27;100.00;101776.69;6174444;23;20017;-80
2022/07/24 05:52:06;;;;;;;5.45;4.70;;;;;;;18.43;100.00;101766.69;6154716;23;20039;-81
2022/07/24 05:54:37;;;;;;;5.53;4.95;;;;;;;18.58;100.00;101769.13;6105784;23;20020;-81
2022/07/24 05:57:06;;;;;;;6.28;5.05;;;;;;;18.70;100.00;101768.94;6080276;23;20082;-81
2022/07/24 05:59:34;;;;;;;5.20;4.80;;;;;;;18.73;100.00;101767.13;6070677;23;20646;-81
2022/07/24 06:02:04;;;;;;;6.35;4.75;;;;;;;18.70;100.00;101763.59;6075696;23;20025;-81
2022/07/24 06:04:41;;;;;;;5.65;4.53;;;;;;;18.69;100.00;101763.59;6054256;23;20030;-81
2022/07/24 06:07:10;;;;;;;6.10;4.80;;;;;;;18.66;100.00;101764.56;6077856;23;20025;-81
2022/07/24 06:09:39;;;;;;;5.28;4.72;;;;;;;18.62;100.00;101761.94;6069163;23;20029;-81
2022/07/24 06:12:08;;;;;;;10.05;6.10;;;;;;;18.56;100.00;101757.56;6077596;23;20022;-81
2022/07/24 06:14:36;;;;;;;4.97;4.43;;;;;;;18.56;100.00;101757.56;6079923;23;20025;-81
2022/07/24 06:17:08;;;;;;;5.57;5.07;;;;;;;18.58;100.00;101746.88;6073322;23;20022;-81
2022/07/24 06:19:36;;;;;;;8.25;5.20;;;;;;;18.69;100.00;101751.16;6084476;23;20073;-81
2022/07/24 06:22:05;;;;;;;10.25;5.95;;;;;;;18.83;100.00;101760.78;6100502;23;20018;-82
2022/07/24 06:24:33;;;;;;;7.18;5.07;;;;;;;19.02;100.00;101759.53;6077157;23;20025;-81
2022/07/24 06:27:04;;;;;;;5.35;4.85;;;;;;;19.27;100.00;101753.75;6100361;23;20022;-82
2022/07/24 06:29:40;;;;;;;5.57;5.05;;;;;;;19.50;100.00;101753.31;6093086;23;20022;-81
2022/07/24 06:32:10;;;;;;;8.10;4.93;;;;;;;19.75;100.00;101747.50;6087965;23;20027;-80
2022/07/24 06:34:38;;;;;;;9.55;5.43;;;;;;;19.91;100.00;101738.25;6161536;23;20024;-80
2022/07/24 06:37:07;;;;;;;15.05;6.15;;;;;;;20.05;100.00;101749.50;6118389;23;20024;-80
2022/07/24 06:39:35;;;;;;;6.15;5.20;;;;;;;20.19;100.00;101754.56;6162181;23;20036;-80
2022/07/24 06:42:04;;;;;;;6.22;5.40;;;;;;;20.29;100.00;101749.00;6160750;23;20028;-80
2022/07/24 06:44:36;;;;;;;7.43;5.60;;;;;;;20.29;100.00;101749.00;6127873;23;20077;-80
2022/07/24 06:47:04;;;;;;;10.05;5.97;;;;;;;20.24;100.00;101751.78;6186942;23;20028;-82
2022/07/24 06:49:37;;;;;;;8.32;5.95;;;;;;;20.23;100.00;101761.59;6126291;23;20028;-81
2022/07/24 06:52:05;;;;;;;9.57;6.43;;;;;;;20.25;100.00;101750.88;6170218;23;20021;-80
2022/07/24 06:54:33;;;;;;;6.97;5.63;;;;;;;20.32;100.00;101755.19;6163396;23;20055;-80
2022/07/24 06:57:02;;;;;;;7.40;6.20;;;;;;;20.41;100.00;101749.59;6186531;23;20025;-82
2022/07/24 06:59:30;;;;;;;8.07;5.82;;;;;;;20.53;100.00;101743.06;6162863;23;20348;-80
2022/07/24 07:01:59;;;;;;;7.15;5.65;;;;;;;20.63;100.00;101754.47;6139129;23;20024;-80
2022/07/24 07:04:27;;;;;;;10.98;6.05;;;;;;;20.72;100.00;101750.66;6184434;23;20025;-80
2022/07/24 07:06:56;;;;;;;8.57;6.00;;;;;;;20.77;100.00;101748.75;6161253;23;20028;-80
2022/07/24 07:09:24;;;;;;;6.70;5.88;;;;;;;20.80;100.00;101754.94;6184549;23;20115;-80
2022/07/24 07:11:53;;;;;;;16.15;5.90;;;;;;;20.83;100.00;101756.63;6139956;23;20024;-80
2022/07/24 07:14:21;;;;;;;8.05;6.10;;;;;;;20.83;100.00;101745.94;6159323;23;20239;-80
2022/07/24 07:16:49;;;;;;;7.10;5.88;;;;;;;20.89;100.00;101750.25;6163150;23;20447;-81
2022/07/24 07:19:18;;;;;;;7.07;6.38;;;;;;;20.98;100.00;101758.06;6170374;23;20013;-81
2022/07/24 07:21:46;;;;;;;6.75;6.15;;;;;;;21.06;100.00;101741.78;6134069;23;20025;-81
2022/07/24 07:24:15;;;;;;;7.53;6.15;;;;;;;21.10;100.00;101749.72;6184363;23;20151;-81
2022/07/24 07:26:43;;;;;;;7.65;6.68;;;;;;;21.18;100.00;101747.69;6155075;23;20013;-80
2022/07/24 07:29:12;;;;;;;10.50;8.35;;;;;;;21.20;100.00;101737.81;6184585;23;20320;-81
2022/07/24 07:31:40;;;;;;;8.98;7.57;;;;;;;21.19;100.00;101744.09;6178375;23;20474;-81
2022/07/24 07:34:09;;;;;;;9.43;7.78;;;;;;;21.26;100.00;101741.25;6125706;23;20032;-81
2022/07/24 07:36:38;;;;;;;9.27;7.78;;;;;;;21.31;100.00;101745.56;6112888;23;20375;-81
2022/07/24 07:39:07;;;;;;;8.52;7.72;;;;;;;21.35;100.00;101733.84;6192504;23;20013;-81
2022/07/24 07:41:36;;;;;;;10.63;8.13;;;;;;;21.39;100.00;101730.13;6186530;23;20021;-80
2022/07/24 07:44:06;;;;;;;8.67;7.80;;;;;;;21.41;100.00;101733.66;6180979;23;20031;-81
2022/07/24 07:46:35;;;;;;;11.23;8.48;;;;;;;21.42;100.00;101738.09;6188239;23;20069;-81
2022/07/24 07:49:04;;;;;;;10.45;8.25;;;;;;;21.47;100.00;101740.69;6160375;23;20009;-80
2022/07/24 07:51:33;;;;;;;9.70;8.00;;;;;;;21.53;100.00;101735.16;6185219;23;20052;-81
2022/07/24 07:54:02;;;;;;;10.32;7.68;;;;;;;21.59;100.00;101742.16;6095770;23;20017;-81
2022/07/24 07:56:32;;;;;;;10.63;7.95;;;;;;;21.65;100.00;101738.41;6162062;23;20146;-81
2022/07/24 07:59:01;;;;;;;9.95;8.95;;;;;;;21.74;100.00;101739.03;6125026;23;20009;-81
2022/07/24 08:01:29;;;;;;;10.50;8.73;;;;;;;21.83;100.00;101728.94;6176576;23;20151;-80
2022/07/24 08:03:58;;;;;;;10.13;8.60;;;;;;;21.96;100.00;101727.63;6155590;23;20032;-81
2022/07/24 08:06:26;;;;;;;11.23;8.48;;;;;;;22.05;99.48;101730.03;6151074;23;20021;-81
2022/07/24 08:08:57;;;;;;;11.35;8.60;;;;;;;22.15;99.10;101723.44;6133983;23;20323;-80
2022/07/24 08:11:26;;;;;;;9.73;8.73;;;;;;;22.27;98.47;101730.28;6134547;23;20024;-80
2022/07/24 08:13:55;;;;;;;9.10;8.20;;;;;;;22.39;97.21;101729.03;6148357;23;20377;-81
2022/07/24 08:16:24;;;;;;;10.98;7.88;;;;;;;22.54;96.05;101728.50;6185870;23;20013;-81
2022/07/24 08:18:53;;;;;;;8.88;7.95;;;;;;;22.70;94.89;101725.31;6138262;23;20021;-81
2022/07/24 08:21:22;;;;;;;9.25;7.22;;;;;;;22.77;94.81;101724.19;6099327;23;20017;-80
2022/07/24 08:23:50;;;;;;;10.25;7.00;;;;;;;22.77;93.98;101726.88;6169648;23;20355;-81
2022/07/24 08:26:19;;;;;;;8.00;6.45;;;;;;;22.79;92.64;101719.63;6167695;23;20338;-80
2022/07/24 08:28:47;;;;;;;8.98;5.93;;;;;;;22.84;92.80;101725.75;6154816;23;20020;-81
2022/07/24 08:31:16;;;;;;;9.57;6.25;;;;;;;22.90;92.42;101719.28;6125160;23;20134;-80
2022/07/24 08:33:44;;;;;;;8.82;6.03;;;;;;;22.90;92.24;101706.72;6187641;23;20353;-80
2022/07/24 08:36:12;;;;;;;6.70;5.10;;;;;;;22.86;92.36;101720.31;6120597;23;20021;-81
2022/07/24 08:38:41;;;;;;;7.72;5.22;;;;;;;22.86;92.40;101721.19;6189736;23;20017;-81
2022/07/24 08:41:09;;;;;;;5.40;4.88;;;;;;;22.86;91.41;101723.88;6083812;23;20028;-81
2022/07/24 08:43:38;;;;;;;7.47;5.32;;;;;;;22.89;91.27;101731.84;6153076;23;20024;-81
2022/07/24 08:46:10;;;;;;;6.00;4.50;;;;;;;23.00;91.48;101725.19;6184001;23;20342;-81
2022/07/24 08:48:45;;;;;;;5.00;3.88;;;;;;;23.20;89.79;101721.84;6187049;23;20465;-81
2022/07/24 08:51:14;;;;;;;3.58;3.28;;;;;;;23.38;88.29;101723.84;6120817;23;20394;-81
2022/07/24 08:53:44;;;;;;;7.63;3.58;;;;;;;23.58;87.95;101720.44;6161454;23;20361;-80
2022/07/24 08:56:13;;;;;;;3.35;2.97;;;;;;;23.79;87.09;101715.22;6141583;23;20025;-81
2022/07/24 08:58:41;;;;;;;3.70;2.95;;;;;;;23.99;86.29;101718.00;6133860;23;20469;-81
2022/07/24 09:01:10;;;;;;;3.95;2.90;;;;;;;24.09;84.78;101714.00;6179248;23;20025;-81
2022/07/24 09:03:44;;;;;;;6.90;2.95;;;;;;;24.14;83.81;101719.22;6165176;23;20032;-81
2022/07/24 09:06:14;;;;;;;3.05;2.85;;;;;;;24.10;83.20;101715.78;6161527;23;20245;-81
2022/07/24 09:08:58;;;;;;;4.65;2.88;;;;;;;24.08;82.51;101714.97;6188386;23;20024;-81
2022/07/24 09:11:29;;;;;;;3.92;2.85;;;;;;;23.99;83.10;101715.31;6110815;23;20139;-81
2022/07/24 09:16:48;;;;;;;5.18;2.80;;;;;;;23.70;82.61;101711.03;6178662;23;20533;-81
2022/07/24 09:19:17;;;;;;;3.10;2.90;;;;;;;23.62;83.11;101715.81;6162813;23;20024;-81
2022/07/24 09:21:49;;;;;;;3.28;2.83;;;;;;;23.58;84.16;101715.06;6101031;23;20028;-81
2022/07/24 09:24:20;;;;;;;2.72;2.53;;;;;;;23.62;84.97;101713.13;6183168;23;20036;-81
2022/07/24 09:26:56;;;;;;;3.20;2.90;;;;;;;23.72;83.69;101715.44;6155715;23;20028;-81
2022/07/24 09:29:25;;;;;;;2.95;2.75;;;;;;;23.87;83.34;101722.03;6180536;23;20025;-81
2022/07/24 09:31:58;;;;;;;2.60;2.40;;;;;;;23.96;81.17;101720.81;6148278;23;20020;-81
2022/07/24 09:34:28;;;;;;;3.60;2.95;;;;;;;24.01;80.60;101734.97;6189807;23;20446;-81
2022/07/24 09:37:00;;;;;;;2.80;2.60;;;;;;;24.10;79.94;101721.16;6152692;23;20144;-80
2022/07/24 09:39:34;;;;;;;2.67;2.45;;;;;;;24.23;78.73;101723.34;6181732;23;20021;-79
2022/07/24 09:42:05;;;;;;;3.00;2.67;;;;;;;24.34;78.90;101718.41;6111677;23;20217;-79
2022/07/24 09:44:40;;;;;;;3.72;2.90;;;;;;;24.46;78.79;101714.31;6119149;23;20363;-78
2022/07/24 09:47:11;;;;;;;4.95;2.72;;;;;;;24.56;78.33;101707.66;6152166;23;20377;-78
2022/07/24 09:49:40;;;;;;;4.25;2.90;;;;;;;24.66;78.75;101703.63;6159490;23;20469;-78
2022/07/24 09:52:14;;;;;;;3.13;2.60;;;;;;;24.79;79.46;101708.50;6157608;23;20647;-78
2022/07/24 09:54:47;;;;;;;3.80;2.75;;;;;;;24.90;78.61;101707.09;6173982;23;20024;-78
2022/07/24 09:57:23;;;;;;;3.10;2.90;;;;;;;25.04;79.10;101711.00;6138640;23;20021;-78
2022/07/24 09:59:53;;;;;;;2.70;2.47;;;;;;;25.20;79.40;101701.31;6178532;23;20020;-78
2022/07/24 10:02:30;;;;;;;3.00;2.47;;;;;;;25.35;78.03;101705.16;6184263;23;20020;-78
2022/07/24 10:05:03;;;;;;;3.70;2.75;;;;;;;25.34;75.95;101700.69;6164195;23;20135;-78
2022/07/24 10:07:33;;;;;;;2.95;2.60;;;;;;;25.34;76.14;101686.34;6186610;23;20040;-78
2022/07/24 10:10:01;;;;;;;3.70;2.40;;;;;;;25.41;76.30;101682.44;6148147;23;20021;-78
2022/07/24 10:12:32;;;;;;;3.10;2.85;;;;;;;25.46;75.33;101685.78;6141468;23;20036;-78
2022/07/24 10:15:01;;;;;;;5.57;2.70;;;;;;;25.48;76.17;101687.47;6181667;23;20032;-78
2022/07/24 10:18:01;;;;;;;3.43;2.87;;;;;;;25.58;74.57;101681.66;6187682;23;20484;-78
2022/07/24 10:20:40;;;;;;;4.65;2.72;;;;;;;25.67;70.96;101683.88;6181026;23;20240;-77
2022/07/24 10:23:25;;;;;;;2.78;2.58;;;;;;;25.75;70.91;101687.13;6151477;23;20032;-78
2022/07/24 10:26:05;;;;;;;2.80;2.60;;;;;;;25.80;73.13;101684.19;6173701;23;20028;-78
2022/07/24 10:28:40;;;;;;;4.30;2.88;;;;;;;25.77;71.71;101685.22;6170674;23;20028;-80
2022/07/24 10:31:13;;;;;;;4.88;2.78;;;;;;;25.76;72.28;101688.84;6151361;23;20032;-80
2022/07/24 10:33:50;;;;;;;5.50;2.72;;;;;;;25.66;71.89;101690.25;6182275;23;20474;-80
2022/07/24 10:36:29;;;;;;;3.40;2.58;;;;;;;25.67;73.07;101692.00;6152136;23;20021;-80
2022/07/24 10:39:12;;;;;;;7.38;2.78;;;;;;;25.71;72.86;101687.31;6165131;23;20658;-80
2022/07/24 10:41:40;;;;;;;3.15;2.83;;;;;;;25.65;71.92;101681.28;6185294;23;20017;-81
2022/07/24 10:44:14;;;;;;;3.55;3.05;;;;;;;25.61;72.06;101681.50;6158344;23;20021;-80
2022/07/24 10:46:59;;;;;;;2.72;2.30;;;;;;;25.62;72.30;101689.53;6159332;23;20021;-80
2022/07/24 10:49:42;;;;;;;2.78;2.38;;;;;;;25.69;73.28;101679.31;6187189;23;20017;-80
2022/07/24 10:52:31;;;;;;;4.28;2.15;;;;;;;25.78;71.98;101680.69;6182004;23;20219;-80
2022/07/24 10:55:22;;;;;;;3.17;2.42;;;;;;;25.89;73.49;101683.75;6179514;23;20551;-80
2022/07/24 10:58:01;;;;;;;4.32;2.30;;;;;;;25.96;71.67;101679.84;6182464;23;20020;-80
2022/07/24 11:00:36;;;;;;;3.70;2.75;;;;;;;25.94;72.19;101686.28;6107189;23;20021;-80
2022/07/24 11:03:18;;;;;;;2.97;2.40;;;;;;;25.87;72.16;101694.63;6174849;23;20032;-80
2022/07/24 11:06:10;;;;;;;4.60;2.75;;;;;;;25.86;72.31;101692.03;6144402;23;20036;-80
2022/07/24 11:08:38;;;;;;;2.75;2.40;;;;;;;25.79;71.76;101686.03;6145959;23;20025;-80
2022/07/24 11:11:13;;;;;;;2.55;2.40;;;;;;;25.78;72.44;101688.78;6179970;23;20020;-80
2022/07/24 11:13:44;;;;;;;4.15;2.42;;;;;;;25.87;72.95;101683.81;6153115;23;20020;-80
2022/07/24 11:16:20;;;;;;;4.35;2.30;;;;;;;25.97;73.22;101684.28;6164428;23;20454;-80
2022/07/24 11:18:50;;;;;;;2.85;1.88;;;;;;;26.15;72.14;101670.84;6147932;23;20029;-80
2022/07/24 11:21:36;;;;;;;3.50;2.25;;;;;;;26.33;69.51;101672.63;6175195;23;20029;-80
2022/07/24 11:24:14;;;;;;;5.57;2.50;;;;;;;26.39;71.24;101683.16;6181748;23;20478;-80
2022/07/24 11:26:46;;;;;;;3.10;2.22;;;;;;;26.34;69.60;101677.09;6168596;23;20036;-80
2022/07/24 11:29:21;;;;;;;6.53;2.60;;;;;;;26.16;67.76;101680.69;6168517;23;20447;-80
2022/07/24 11:31:53;;;;;;;2.40;2.20;;;;;;;25.96;69.00;101677.16;6181471;23;20267;-80
2022/07/24 11:34:22;;;;;;;2.53;1.90;;;;;;;25.92;68.57;101675.56;6155375;23;20040;-80
2022/07/24 11:36:53;;;;;;;4.57;2.17;;;;;;;26.03;68.50;101675.00;6167168;23;20020;-79